sensor_id;sensor_type;location;lat;lon;timestamp;pressure;altitude;pressure_sealevel;temperature;humidity
20228;BME280;12195;55.790;37.572;2023-05-08T00:00:29;101220.58;;;3.03;57.52
20228;BME280;12195;55.790;37.572;2023-05-08T00:03:01;101217.09;;;3.01;57.72
20228;BME280;12195;55.790;37.572;2023-05-08T00:05:33;101219.70;;;3.01;57.81
20228;BME280;12195;55.790;37.572;2023-05-08T00:08:06;101224.03;;;2.99;57.99
20228;BME280;12195;55.790;37.572;2023-05-08T00:10:38;101217.96;;;2.97;57.84
20228;BME280;12195;55.790;37.572;2023-05-08T00:13:10;101228.34;;;2.97;58.21
20228;BME280;12195;55.790;37.572;2023-05-08T00:15:42;101234.41;;;2.97;58.26
20228;BME280;12195;55.790;37.572;2023-05-08T00:18:15;101230.94;;;2.97;58.24
20228;BME280;12195;55.790;37.572;2023-05-08T00:20:47;101227.49;;;2.95;58.37
20228;BME280;12195;55.790;37.572;2023-05-08T00:23:19;101230.95;;;2.92;58.59
20228;BME280;12195;55.790;37.572;2023-05-08T00:25:52;101233.54;;;2.91;58.57
20228;BME280;12195;55.790;37.572;2023-05-08T00:28:24;101235.28;;;2.87;58.55
20228;BME280;12195;55.790;37.572;2023-05-08T00:31:01;101232.67;;;2.84;58.71
20228;BME280;12195;55.790;37.572;2023-05-08T00:33:33;101240.44;;;2.80;58.98
20228;BME280;12195;55.790;37.572;2023-05-08T00:36:05;101240.45;;;2.77;59.08
20228;BME280;12195;55.790;37.572;2023-05-08T00:38:37;101245.64;;;2.75;59.11
20228;BME280;12195;55.790;37.572;2023-05-08T00:41:09;101244.75;;;2.72;59.30
20228;BME280;12195;55.790;37.572;2023-05-08T00:43:41;101243.89;;;2.70;59.52
20228;BME280;12195;55.790;37.572;2023-05-08T00:46:14;101242.16;;;2.67;59.75
20228;BME280;12195;55.790;37.572;2023-05-08T00:48:46;101244.74;;;2.64;59.92
20228;BME280;12195;55.790;37.572;2023-05-08T00:51:19;101246.45;;;2.62;60.11
20228;BME280;12195;55.790;37.572;2023-05-08T00:53:51;101252.50;;;2.60;60.22
20228;BME280;12195;55.790;37.572;2023-05-08T00:56:24;101254.23;;;2.58;59.99
20228;BME280;12195;55.790;37.572;2023-05-08T00:58:57;101249.90;;;2.58;59.90
20228;BME280;12195;55.790;37.572;2023-05-08T01:01:30;101249.06;;;2.61;60.00
20228;BME280;12195;55.790;37.572;2023-05-08T01:04:04;101245.62;;;2.65;59.89
20228;BME280;12195;55.790;37.572;2023-05-08T01:06:36;101255.97;;;2.68;59.62
20228;BME280;12195;55.790;37.572;2023-05-08T01:09:08;101254.28;;;2.73;59.29
20228;BME280;12195;55.790;37.572;2023-05-08T01:12:01;101249.95;;;2.76;59.16
20228;BME280;12195;55.790;37.572;2023-05-08T01:26:14;101255.14;;;2.85;58.53
20228;BME280;12195;55.790;37.572;2023-05-08T01:34:23;101262.92;;;2.94;57.73
20228;BME280;12195;55.790;37.572;2023-05-08T01:37:11;101262.95;;;3.00;57.54
20228;BME280;12195;55.790;37.572;2023-05-08T01:40:09;101256.88;;;3.00;57.78
20228;BME280;12195;55.790;37.572;2023-05-08T01:45:47;101266.41;;;3.16;57.03
20228;BME280;12195;55.790;37.572;2023-05-08T01:48:27;101266.39;;;3.22;56.66
20228;BME280;12195;55.790;37.572;2023-05-08T01:51:07;101273.32;;;3.29;56.56
20228;BME280;12195;55.790;37.572;2023-05-08T01:53:48;101268.98;;;3.34;56.22
20228;BME280;12195;55.790;37.572;2023-05-08T01:56:22;101275.06;;;3.39;56.04
20228;BME280;12195;55.790;37.572;2023-05-08T01:58:57;101273.33;;;3.44;55.53
20228;BME280;12195;55.790;37.572;2023-05-08T02:01:31;101272.45;;;3.48;55.27
20228;BME280;12195;55.790;37.572;2023-05-08T02:04:05;101278.50;;;3.53;55.09
20228;BME280;12195;55.790;37.572;2023-05-08T02:06:38;101283.70;;;3.57;55.01
20228;BME280;12195;55.790;37.572;2023-05-08T02:09:11;101282.81;;;3.73;53.71
20228;BME280;12195;55.790;37.572;2023-05-08T02:11:44;101283.68;;;3.65;54.62
20228;BME280;12195;55.790;37.572;2023-05-08T02:14:20;101281.93;;;3.68;54.71
20228;BME280;12195;55.790;37.572;2023-05-08T02:16:54;101287.13;;;3.70;54.83
20228;BME280;12195;55.790;37.572;2023-05-08T02:19:28;101280.22;;;3.70;54.92
20228;BME280;12195;55.790;37.572;2023-05-08T02:22:02;101288.86;;;3.77;55.03
20228;BME280;12195;55.790;37.572;2023-05-08T02:24:36;101284.51;;;3.80;54.92
20228;BME280;12195;55.790;37.572;2023-05-08T02:27:10;101288.83;;;3.83;54.81
20228;BME280;12195;55.790;37.572;2023-05-08T02:29:44;101290.55;;;3.90;54.72
20228;BME280;12195;55.790;37.572;2023-05-08T02:32:18;101294.87;;;3.95;54.67
20228;BME280;12195;55.790;37.572;2023-05-08T02:34:52;101286.20;;;4.01;54.22
20228;BME280;12195;55.790;37.572;2023-05-08T02:37:28;101295.72;;;4.05;54.11
20228;BME280;12195;55.790;37.572;2023-05-08T02:40:03;101293.97;;;4.10;54.02
20228;BME280;12195;55.790;37.572;2023-05-08T02:42:37;101294.81;;;4.13;53.87
20228;BME280;12195;55.790;37.572;2023-05-08T02:45:11;101297.41;;;4.18;53.97
20228;BME280;12195;55.790;37.572;2023-05-08T02:50:42;101300.84;;;4.26;53.49
20228;BME280;12195;55.790;37.572;2023-05-08T02:53:15;101307.77;;;4.31;53.60
20228;BME280;12195;55.790;37.572;2023-05-08T02:55:56;101314.68;;;4.37;53.22
20228;BME280;12195;55.790;37.572;2023-05-08T02:58:44;101318.96;;;4.45;53.21
20228;BME280;12195;55.790;37.572;2023-05-08T03:01:22;101318.95;;;4.51;53.08
20228;BME280;12195;55.790;37.572;2023-05-08T03:04:06;101324.98;;;4.58;52.77
20228;BME280;12195;55.790;37.572;2023-05-08T03:06:41;101320.61;;;4.66;52.52
20228;BME280;12195;55.790;37.572;2023-05-08T03:09:19;101328.37;;;4.73;52.33
20228;BME280;12195;55.790;37.572;2023-05-08T03:11:57;101321.39;;;4.80;52.07
20228;BME280;12195;55.790;37.572;2023-05-08T03:14:28;101326.58;;;4.86;52.29
20228;BME280;12195;55.790;37.572;2023-05-08T03:17:03;101338.66;;;4.93;52.25
20228;BME280;12195;55.790;37.572;2023-05-08T03:19:37;101334.28;;;4.98;51.99
20228;BME280;12195;55.790;37.572;2023-05-08T03:22:10;101329.94;;;5.04;51.63
20228;BME280;12195;55.790;37.572;2023-05-08T03:24:45;101335.92;;;5.14;51.54
20228;BME280;12195;55.790;37.572;2023-05-08T03:27:19;101337.62;;;5.21;51.62
20228;BME280;12195;55.790;37.572;2023-05-08T03:29:53;101342.77;;;5.28;51.35
20228;BME280;12195;55.790;37.572;2023-05-08T03:32:27;101336.64;;;5.35;51.11
20228;BME280;12195;55.790;37.572;2023-05-08T03:35:02;101336.58;;;5.43;50.78
20228;BME280;12195;55.790;37.572;2023-05-08T03:37:34;101339.98;;;5.52;50.70
20228;BME280;12195;55.790;37.572;2023-05-08T03:40:07;101336.45;;;5.61;50.28
20228;BME280;12195;55.790;37.572;2023-05-08T03:42:40;101338.09;;;5.69;50.16
20228;BME280;12195;55.790;37.572;2023-05-08T03:45:13;101342.37;;;5.78;49.68
20228;BME280;12195;55.790;37.572;2023-05-08T03:47:47;101352.74;;;5.86;49.49
20228;BME280;12195;55.790;37.572;2023-05-08T03:50:20;101351.83;;;5.91;49.24
20228;BME280;12195;55.790;37.572;2023-05-08T03:52:53;101349.18;;;5.97;49.28
20228;BME280;12195;55.790;37.572;2023-05-08T03:55:27;101347.39;;;6.02;49.39
20228;BME280;12195;55.790;37.572;2023-05-08T03:58:14;101356.00;;;6.10;49.01
20228;BME280;12195;55.790;37.572;2023-05-08T04:03:24;101354.09;;;6.24;48.62
20228;BME280;12195;55.790;37.572;2023-05-08T04:06:06;101356.59;;;6.33;48.97
20228;BME280;12195;55.790;37.572;2023-05-08T04:08:43;101354.77;;;6.41;48.74
20228;BME280;12195;55.790;37.572;2023-05-08T04:11:20;101352.94;;;6.49;48.44
20228;BME280;12195;55.790;37.572;2023-05-08T04:13:53;101347.62;;;6.58;48.32
20228;BME280;12195;55.790;37.572;2023-05-08T04:16:28;101352.74;;;6.66;47.70
20228;BME280;12195;55.790;37.572;2023-05-08T04:19:06;101348.28;;;6.75;47.49
20228;BME280;12195;55.790;37.572;2023-05-08T04:21:40;101347.27;;;6.84;47.20
20228;BME280;12195;55.790;37.572;2023-05-08T04:24:14;101344.53;;;6.93;47.14
20228;BME280;12195;55.790;37.572;2023-05-08T04:26:48;101350.50;;;7.02;46.77
20228;BME280;12195;55.790;37.572;2023-05-08T04:29:21;101346.03;;;7.10;46.69
20228;BME280;12195;55.790;37.572;2023-05-08T04:31:55;101352.87;;;7.20;47.20
20228;BME280;12195;55.790;37.572;2023-05-08T04:34:28;101344.84;;;7.32;46.83
20228;BME280;12195;55.790;37.572;2023-05-08T04:37:01;101350.73;;;7.45;46.38
20228;BME280;12195;55.790;37.572;2023-05-08T04:39:34;101358.36;;;7.58;45.96
20228;BME280;12195;55.790;37.572;2023-05-08T04:42:06;101355.61;;;7.66;45.10
20228;BME280;12195;55.790;37.572;2023-05-08T04:44:38;101350.28;;;7.73;45.05
20228;BME280;12195;55.790;37.572;2023-05-08T04:47:10;101349.26;;;7.80;44.87
20228;BME280;12195;55.790;37.572;2023-05-08T04:49:43;101349.17;;;7.86;43.86
20228;BME280;12195;55.790;37.572;2023-05-08T04:52:16;101349.00;;;7.95;43.58
20228;BME280;12195;55.790;37.572;2023-05-08T04:54:48;101350.67;;;7.99;43.58
20228;BME280;12195;55.790;37.572;2023-05-08T04:57:21;101350.55;;;8.05;43.17
20228;BME280;12195;55.790;37.572;2023-05-08T04:59:53;101350.44;;;8.13;43.09
20228;BME280;12195;55.790;37.572;2023-05-08T05:02:26;101349.46;;;8.18;42.46
20228;BME280;12195;55.790;37.572;2023-05-08T05:04:58;101344.16;;;8.23;42.56
20228;BME280;12195;55.790;37.572;2023-05-08T05:07:33;101348.47;;;8.25;42.05
20228;BME280;12195;55.790;37.572;2023-05-08T05:10:05;101355.39;;;8.28;42.23
20228;BME280;12195;55.790;37.572;2023-05-08T05:12:38;101350.98;;;8.31;42.64
20228;BME280;12195;55.790;37.572;2023-05-08T05:15:10;101356.01;;;8.42;42.31
20228;BME280;12195;55.790;37.572;2023-05-08T05:17:43;101360.18;;;8.50;41.88
20228;BME280;12195;55.790;37.572;2023-05-08T05:20:15;101358.25;;;8.60;41.65
20228;BME280;12195;55.790;37.572;2023-05-08T05:22:48;101365.97;;;8.67;41.36
20228;BME280;12195;55.790;37.572;2023-05-08T05:25:21;101371.92;;;8.75;41.32
20228;BME280;12195;55.790;37.572;2023-05-08T05:27:53;101370.88;;;8.82;41.05
20228;BME280;12195;55.790;37.572;2023-05-08T05:30:26;101369.86;;;8.89;40.76
20228;BME280;12195;55.790;37.572;2023-05-08T05:32:58;101362.70;;;8.97;40.50
20228;BME280;12195;55.790;37.572;2023-05-08T05:35:31;101378.24;;;9.05;40.75
20228;BME280;12195;55.790;37.572;2023-05-08T05:38:03;101371.95;;;9.13;40.09
20228;BME280;12195;55.790;37.572;2023-05-08T05:40:36;101364.78;;;9.21;40.04
20228;BME280;12195;55.790;37.572;2023-05-08T05:43:08;101370.62;;;9.32;39.47
20228;BME280;12195;55.790;37.572;2023-05-08T05:45:40;101375.67;;;9.41;38.99
20228;BME280;12195;55.790;37.572;2023-05-08T05:48:13;101379.02;;;9.48;38.70
20228;BME280;12195;55.790;37.572;2023-05-08T05:50:46;101363.25;;;9.49;37.70
20228;BME280;12195;55.790;37.572;2023-05-08T05:53:19;101378.02;;;9.53;37.39
20228;BME280;12195;55.790;37.572;2023-05-08T05:55:51;101368.27;;;9.58;37.80
20228;BME280;12195;55.790;37.572;2023-05-08T05:58:24;101376.11;;;9.60;38.12
20228;BME280;12195;55.790;37.572;2023-05-08T06:00:57;101371.57;;;9.66;37.80
20228;BME280;12195;55.790;37.572;2023-05-08T06:03:32;101368.75;;;9.74;37.17
20228;BME280;12195;55.790;37.572;2023-05-08T06:06:06;101367.70;;;9.81;37.28
20228;BME280;12195;55.790;37.572;2023-05-08T06:08:38;101371.95;;;9.86;36.50
20228;BME280;12195;55.790;37.572;2023-05-08T06:11:11;101368.34;;;9.90;36.13
20228;BME280;12195;55.790;37.572;2023-05-08T06:13:45;101368.10;;;9.99;36.75
20228;BME280;12195;55.790;37.572;2023-05-08T06:16:20;101368.21;;;10.60;35.39
20228;BME280;12195;55.790;37.572;2023-05-08T06:18:53;101368.48;;;11.66;33.69
20228;BME280;12195;55.790;37.572;2023-05-08T06:21:27;101362.10;;;12.48;32.63
20228;BME280;12195;55.790;37.572;2023-05-08T06:23:59;101359.16;;;13.03;31.24
20228;BME280;12195;55.790;37.572;2023-05-08T06:26:31;101362.28;;;13.36;30.81
20228;BME280;12195;55.790;37.572;2023-05-08T06:29:03;101363.68;;;13.44;29.95
20228;BME280;12195;55.790;37.572;2023-05-08T06:31:35;101364.92;;;13.36;30.17
20228;BME280;12195;55.790;37.572;2023-05-08T06:34:08;101363.91;;;13.17;30.54
20228;BME280;12195;55.790;37.572;2023-05-08T06:36:40;101360.19;;;12.99;30.72
20228;BME280;12195;55.790;37.572;2023-05-08T06:39:13;101355.79;;;13.00;30.42
20228;BME280;12195;55.790;37.572;2023-05-08T06:41:48;101363.05;;;12.93;30.61
20228;BME280;12195;55.790;37.572;2023-05-08T06:44:22;101363.20;;;12.89;30.77
20228;BME280;12195;55.790;37.572;2023-05-08T06:46:55;101362.31;;;12.90;30.80
20228;BME280;12195;55.790;37.572;2023-05-08T06:49:28;101352.55;;;12.92;30.61
20228;BME280;12195;55.790;37.572;2023-05-08T06:52:00;101353.28;;;12.95;29.99
20228;BME280;12195;55.790;37.572;2023-05-08T06:54:32;101363.09;;;12.92;30.05
20228;BME280;12195;55.790;37.572;2023-05-08T06:57:04;101345.56;;;12.91;29.88
20228;BME280;12195;55.790;37.572;2023-05-08T06:59:39;101351.19;;;13.05;29.80
20228;BME280;12195;55.790;37.572;2023-05-08T07:02:11;101349.06;;;13.14;29.26
20228;BME280;12195;55.790;37.572;2023-05-08T07:04:46;101352.27;;;13.22;29.40
20228;BME280;12195;55.790;37.572;2023-05-08T07:07:18;101350.41;;;13.24;29.16
20228;BME280;12195;55.790;37.572;2023-05-08T07:09:50;101350.12;;;13.32;28.92
20228;BME280;12195;55.790;37.572;2023-05-08T07:12:23;101348.60;;;13.48;28.47
20228;BME280;12195;55.790;37.572;2023-05-08T07:14:55;101347.91;;;13.64;28.11
20228;BME280;12195;55.790;37.572;2023-05-08T07:17:27;101343.77;;;13.79;28.10
20228;BME280;12195;55.790;37.572;2023-05-08T07:20:00;101348.30;;;13.97;28.03
20228;BME280;12195;55.790;37.572;2023-05-08T07:22:33;101334.94;;;14.00;28.03
20228;BME280;12195;55.790;37.572;2023-05-08T07:25:06;101330.65;;;13.97;27.63
20228;BME280;12195;55.790;37.572;2023-05-08T07:27:39;101333.88;;;14.04;28.19
20228;BME280;12195;55.790;37.572;2023-05-08T07:30:11;101337.22;;;14.09;27.47
20228;BME280;12195;55.790;37.572;2023-05-08T07:32:43;101331.93;;;14.09;27.61
20228;BME280;12195;55.790;37.572;2023-05-08T07:35:16;101326.77;;;14.06;27.45
20228;BME280;12195;55.790;37.572;2023-05-08T07:37:48;101332.83;;;14.08;28.05
20228;BME280;12195;55.790;37.572;2023-05-08T07:40:20;101330.86;;;13.93;28.08
20228;BME280;12195;55.790;37.572;2023-05-08T07:42:53;101328.67;;;13.82;28.43
20228;BME280;12195;55.790;37.572;2023-05-08T07:45:25;101332.31;;;13.80;28.70
20228;BME280;12195;55.790;37.572;2023-05-08T07:47:58;101331.38;;;13.81;27.82
20228;BME280;12195;55.790;37.572;2023-05-08T07:50:30;101330.30;;;13.65;27.74
20228;BME280;12195;55.790;37.572;2023-05-08T07:53:03;101334.73;;;13.43;28.20
20228;BME280;12195;55.790;37.572;2023-05-08T07:55:35;101338.09;;;13.25;28.75
20228;BME280;12195;55.790;37.572;2023-05-08T07:58:07;101330.15;;;13.03;28.92
20228;BME280;12195;55.790;37.572;2023-05-08T08:00:39;101331.81;;;12.83;29.26
20228;BME280;12195;55.790;37.572;2023-05-08T08:03:12;101334.44;;;12.60;29.40
20228;BME280;12195;55.790;37.572;2023-05-08T08:05:44;101328.05;;;12.42;29.41
20228;BME280;12195;55.790;37.572;2023-05-08T08:08:16;101339.90;;;12.31;29.75
20228;BME280;12195;55.790;37.572;2023-05-08T08:10:49;101334.27;;;12.17;29.99
20228;BME280;12195;55.790;37.572;2023-05-08T08:13:21;101337.10;;;12.11;30.34
20228;BME280;12195;55.790;37.572;2023-05-08T08:15:54;101328.36;;;12.10;30.25
20228;BME280;12195;55.790;37.572;2023-05-08T08:18:27;101329.93;;;12.16;30.21
20228;BME280;12195;55.790;37.572;2023-05-08T08:20:59;101329.80;;;12.19;30.02
20228;BME280;12195;55.790;37.572;2023-05-08T08:23:31;101322.15;;;12.36;29.81
20228;BME280;12195;55.790;37.572;2023-05-08T08:26:04;101324.47;;;12.68;29.53
20228;BME280;12195;55.790;37.572;2023-05-08T08:28:36;101324.03;;;13.03;28.30
20228;BME280;12195;55.790;37.572;2023-05-08T08:31:08;101318.64;;;13.49;28.34
20228;BME280;12195;55.790;37.572;2023-05-08T08:33:41;101319.88;;;13.82;28.32
20228;BME280;12195;55.790;37.572;2023-05-08T08:36:14;101309.45;;;14.19;27.42
20228;BME280;12195;55.790;37.572;2023-05-08T08:38:47;101305.30;;;14.90;26.52
20228;BME280;12195;55.790;37.572;2023-05-08T08:41:19;101305.30;;;14.90;26.52
20228;BME280;12195;55.790;37.572;2023-05-08T08:43:52;101307.56;;;15.16;26.28
20228;BME280;12195;55.790;37.572;2023-05-08T08:46:26;101294.47;;;15.32;25.81
20228;BME280;12195;55.790;37.572;2023-05-08T08:49:00;101305.72;;;15.37;24.61
20228;BME280;12195;55.790;37.572;2023-05-08T08:54:12;101305.85;;;15.15;25.09
20228;BME280;12195;55.790;37.572;2023-05-08T08:56:47;101305.23;;;14.92;24.88
20228;BME280;12195;55.790;37.572;2023-05-08T08:59:22;101304.30;;;14.74;25.25
20228;BME280;12195;55.790;37.572;2023-05-08T09:02:00;101303.28;;;14.58;24.60
20228;BME280;12195;55.790;37.572;2023-05-08T09:04:32;101310.44;;;14.56;25.10
20228;BME280;12195;55.790;37.572;2023-05-08T09:07:04;101297.55;;;14.49;25.28
20228;BME280;12195;55.790;37.572;2023-05-08T09:09:39;101293.64;;;14.57;25.22
20228;BME280;12195;55.790;37.572;2023-05-08T09:12:12;101304.66;;;14.67;24.84
20228;BME280;12195;55.790;37.572;2023-05-08T09:14:44;101306.51;;;14.83;25.00
20228;BME280;12195;55.790;37.572;2023-05-08T09:17:16;101302.78;;;15.06;25.44
20228;BME280;12195;55.790;37.572;2023-05-08T09:19:49;101309.80;;;15.44;23.80
20228;BME280;12195;55.790;37.572;2023-05-08T09:22:22;101309.55;;;15.48;22.74
20228;BME280;12195;55.790;37.572;2023-05-08T09:24:56;101302.78;;;15.60;22.79
20228;BME280;12195;55.790;37.572;2023-05-08T09:27:31;101299.05;;;15.64;22.92
20228;BME280;12195;55.790;37.572;2023-05-08T09:30:07;101308.88;;;15.62;22.89
20228;BME280;12195;55.790;37.572;2023-05-08T09:32:42;101300.59;;;15.51;23.34
20228;BME280;12195;55.790;37.572;2023-05-08T09:35:15;101307.91;;;15.46;23.82
20228;BME280;12195;55.790;37.572;2023-05-08T09:37:48;101302.55;;;15.29;23.76
20228;BME280;12195;55.790;37.572;2023-05-08T09:40:21;101314.80;;;15.13;24.04
20228;BME280;12195;55.790;37.572;2023-05-08T09:42:53;101312.23;;;14.93;24.59
20228;BME280;12195;55.790;37.572;2023-05-08T09:45:30;101313.23;;;14.72;25.31
20228;BME280;12195;55.790;37.572;2023-05-08T09:48:05;101318.20;;;14.59;25.17
20228;BME280;12195;55.790;37.572;2023-05-08T09:50:37;101311.92;;;14.43;25.17
20228;BME280;12195;55.790;37.572;2023-05-08T09:53:11;101298.25;;;14.34;25.71
20228;BME280;12195;55.790;37.572;2023-05-08T09:55:47;101306.31;;;14.31;25.74
20228;BME280;12195;55.790;37.572;2023-05-08T09:58:19;101304.66;;;14.28;25.80
20228;BME280;12195;55.790;37.572;2023-05-08T10:00:53;101300.02;;;14.33;25.22
20228;BME280;12195;55.790;37.572;2023-05-08T10:03:44;101300.05;;;14.52;24.92
20228;BME280;12195;55.790;37.572;2023-05-08T10:06:11;101296.43;;;14.73;24.76
20228;BME280;12195;55.790;37.572;2023-05-08T10:08:45;101289.06;;;14.98;23.91
20228;BME280;12195;55.790;37.572;2023-05-08T10:11:19;101289.03;;;15.35;23.30
20228;BME280;12195;55.790;37.572;2023-05-08T10:13:51;101281.29;;;15.49;23.37
20228;BME280;12195;55.790;37.572;2023-05-08T10:16:26;101288.84;;;15.73;22.93
20228;BME280;12195;55.790;37.572;2023-05-08T10:19:00;101290.80;;;16.04;22.40
20228;BME280;12195;55.790;37.572;2023-05-08T10:21:36;101286.30;;;16.39;21.81
20228;BME280;12195;55.790;37.572;2023-05-08T10:24:12;101284.43;;;16.73;21.82
20228;BME280;12195;55.790;37.572;2023-05-08T10:26:53;101289.85;;;17.03;21.40
20228;BME280;12195;55.790;37.572;2023-05-08T10:29:24;101278.89;;;17.24;21.18
20228;BME280;12195;55.790;37.572;2023-05-08T10:31:58;101286.91;;;17.38;21.00
20228;BME280;12195;55.790;37.572;2023-05-08T10:34:31;101264.81;;;17.53;20.36
20228;BME280;12195;55.790;37.572;2023-05-08T10:37:13;101275.31;;;17.70;20.40
20228;BME280;12195;55.790;37.572;2023-05-08T10:39:40;101272.27;;;17.76;20.04
20228;BME280;12195;55.790;37.572;2023-05-08T10:42:13;101274.98;;;17.90;19.85
20228;BME280;12195;55.790;37.572;2023-05-08T10:44:45;101284.95;;;18.44;20.71
20228;BME280;12195;55.790;37.572;2023-05-08T10:47:39;101262.48;;;18.20;19.65
20228;BME280;12195;55.790;37.572;2023-05-08T10:55:49;101256.08;;;19.07;19.31
20228;BME280;12195;55.790;37.572;2023-05-08T11:03:45;101239.61;;;19.41;18.88
20228;BME280;12195;55.790;37.572;2023-05-08T11:12:15;101229.87;;;19.66;19.10
20228;BME280;12195;55.790;37.572;2023-05-08T11:14:40;101242.24;;;19.67;18.89
20228;BME280;12195;55.790;37.572;2023-05-08T11:17:18;101236.13;;;19.53;19.28
20228;BME280;12195;55.790;37.572;2023-05-08T11:19:59;101231.02;;;19.23;19.31
20228;BME280;12195;55.790;37.572;2023-05-08T11:22:34;101230.67;;;18.75;19.40
20228;BME280;12195;55.790;37.572;2023-05-08T11:25:09;101233.17;;;18.36;20.44
20228;BME280;12195;55.790;37.572;2023-05-08T11:30:36;101235.62;;;17.67;20.87
20228;BME280;12195;55.790;37.572;2023-05-08T11:35:59;101235.66;;;17.07;21.67
20228;BME280;12195;55.790;37.572;2023-05-08T11:38:35;101241.98;;;16.73;22.02
20228;BME280;12195;55.790;37.572;2023-05-08T11:41:19;101238.28;;;16.45;22.20
20228;BME280;12195;55.790;37.572;2023-05-08T11:49:21;101235.70;;;15.93;22.29
20228;BME280;12195;55.790;37.572;2023-05-08T11:51:58;101235.70;;;15.93;22.29
20228;BME280;12195;55.790;37.572;2023-05-08T11:54:30;101223.52;;;15.57;22.42
20228;BME280;12195;55.790;37.572;2023-05-08T11:57:03;101244.08;;;15.52;22.77
20228;BME280;12195;55.790;37.572;2023-05-08T11:59:35;101245.77;;;15.36;23.08
20228;BME280;12195;55.790;37.572;2023-05-08T12:02:08;101231.38;;;15.23;23.47
20228;BME280;12195;55.790;37.572;2023-05-08T12:04:45;101231.38;;;15.23;23.47
20228;BME280;12195;55.790;37.572;2023-05-08T12:07:18;101248.34;;;15.37;23.78
20228;BME280;12195;55.790;37.572;2023-05-08T12:09:51;101223.04;;;15.49;23.52
20228;BME280;12195;55.790;37.572;2023-05-08T12:12:34;101224.75;;;15.50;23.27
20228;BME280;12195;55.790;37.572;2023-05-08T12:14:57;101240.48;;;15.70;22.94
20228;BME280;12195;55.790;37.572;2023-05-08T12:17:31;101246.71;;;15.86;23.12
20228;BME280;12195;55.790;37.572;2023-05-08T12:20:17;101250.28;;;16.02;22.99
20228;BME280;12195;55.790;37.572;2023-05-08T12:22:51;101239.22;;;16.27;23.25
20228;BME280;12195;55.790;37.572;2023-05-08T12:25:25;101242.50;;;16.64;22.92
20228;BME280;12195;55.790;37.572;2023-05-08T12:27:58;101236.41;;;17.09;22.79
20228;BME280;12195;55.790;37.572;2023-05-08T12:30:30;101238.59;;;17.47;21.41
20228;BME280;12195;55.790;37.572;2023-05-08T12:33:03;101230.24;;;17.83;21.57
20228;BME280;12195;55.790;37.572;2023-05-08T12:35:37;101226.66;;;18.12;20.63
20228;BME280;12195;55.790;37.572;2023-05-08T12:38:10;101232.48;;;18.32;20.59
20228;BME280;12195;55.790;37.572;2023-05-08T12:40:44;101223.74;;;18.58;20.67
20228;BME280;12195;55.790;37.572;2023-05-08T12:43:17;101220.23;;;18.98;20.59
20228;BME280;12195;55.790;37.572;2023-05-08T12:45:50;101217.45;;;20.29;19.25
20228;BME280;12195;55.790;37.572;2023-05-08T12:48:26;101219.62;;;21.67;17.73
20228;BME280;12195;55.790;37.572;2023-05-08T12:51:03;101203.34;;;22.38;17.13
20228;BME280;12195;55.790;37.572;2023-05-08T12:53:37;101201.53;;;22.49;17.26
20228;BME280;12195;55.790;37.572;2023-05-08T12:56:09;101206.95;;;22.04;16.91
20228;BME280;12195;55.790;37.572;2023-05-08T12:58:41;101209.86;;;21.55;17.77
20228;BME280;12195;55.790;37.572;2023-05-08T13:01:13;101211.53;;;20.98;17.37
20228;BME280;12195;55.790;37.572;2023-05-08T13:03:51;101206.11;;;20.51;17.41
20228;BME280;12195;55.790;37.572;2023-05-08T13:06:23;101210.92;;;20.21;17.78
20228;BME280;12195;55.790;37.572;2023-05-08T13:08:55;101203.37;;;20.15;18.08
20228;BME280;12195;55.790;37.572;2023-05-08T13:11:31;101203.02;;;20.07;18.09
20228;BME280;12195;55.790;37.572;2023-05-08T13:14:04;101206.22;;;19.74;18.23
20228;BME280;12195;55.790;37.572;2023-05-08T13:16:44;101197.61;;;19.32;18.93
20228;BME280;12195;55.790;37.572;2023-05-08T13:19:19;101195.63;;;19.21;19.07
20228;BME280;12195;55.790;37.572;2023-05-08T13:21:51;101192.52;;;19.41;18.61
20228;BME280;12195;55.790;37.572;2023-05-08T13:24:23;101192.72;;;19.38;18.69
20228;BME280;12195;55.790;37.572;2023-05-08T13:26:56;101191.02;;;19.11;18.79
20228;BME280;12195;55.790;37.572;2023-05-08T13:29:29;101193.05;;;18.67;19.12
20228;BME280;12195;55.790;37.572;2023-05-08T13:32:01;101189.77;;;18.35;19.57
20228;BME280;12195;55.790;37.572;2023-05-08T13:34:33;101189.92;;;18.04;19.77
20228;BME280;12195;55.790;37.572;2023-05-08T13:37:07;101189.32;;;17.71;20.27
20228;BME280;12195;55.790;37.572;2023-05-08T13:39:39;101199.52;;;17.34;20.25
20228;BME280;12195;55.790;37.572;2023-05-08T13:42:11;101199.52;;;17.04;20.91
20228;BME280;12195;55.790;37.572;2023-05-08T13:44:44;101202.34;;;16.70;20.96
20228;BME280;12195;55.790;37.572;2023-05-08T13:47:16;101207.70;;;16.38;22.02
20228;BME280;12195;55.790;37.572;2023-05-08T13:49:48;101205.99;;;16.04;22.47
20228;BME280;12195;55.790;37.572;2023-05-08T13:52:20;101203.86;;;15.78;22.83
20228;BME280;12195;55.790;37.572;2023-05-08T13:54:53;101204.98;;;15.57;22.75
20228;BME280;12195;55.790;37.572;2023-05-08T13:57:25;101203.24;;;15.39;23.29
20228;BME280;12195;55.790;37.572;2023-05-08T13:59:58;101190.22;;;15.17;23.69
20228;BME280;12195;55.790;37.572;2023-05-08T14:02:32;101196.81;;;15.09;23.72
20228;BME280;12195;55.790;37.572;2023-05-08T14:05:05;101206.21;;;14.97;23.04
20228;BME280;12195;55.790;37.572;2023-05-08T14:07:38;101204.23;;;14.84;23.77
20228;BME280;12195;55.790;37.572;2023-05-08T14:10:10;101205.69;;;15.08;23.46
20228;BME280;12195;55.790;37.572;2023-05-08T14:12:42;101199.22;;;14.78;24.22
20228;BME280;12195;55.790;37.572;2023-05-08T14:15:15;101199.73;;;14.67;23.59